createdAt,value
2018-03-26T00:02:18.928Z,83.23
2018-03-26T00:04:46.502Z,83.51
2018-03-26T00:07:14.055Z,83.63
2018-03-26T00:09:41.620Z,83.63
2018-03-26T00:12:09.194Z,84.00
2018-03-26T00:14:36.767Z,84.36
2018-03-26T00:17:04.310Z,84.81
2018-03-26T00:19:32.105Z,85.02
2018-03-26T00:21:59.659Z,85.29
2018-03-26T00:24:27.189Z,85.23
2018-03-26T00:26:54.746Z,85.61
2018-03-26T00:29:22.275Z,85.84
2018-03-26T00:31:49.827Z,85.73
2018-03-26T00:34:17.431Z,85.95
2018-03-26T00:36:44.976Z,85.97
2018-03-26T00:39:12.511Z,86.22
2018-03-26T00:41:40.231Z,86.30
2018-03-26T00:44:07.778Z,86.45
2018-03-26T00:46:35.317Z,86.62
2018-03-26T00:49:03.046Z,86.58
2018-03-26T00:51:30.591Z,86.83
2018-03-26T00:53:58.132Z,86.89
2018-03-26T00:56:25.702Z,86.95
2018-03-26T00:58:53.239Z,86.94
2018-03-26T01:01:20.782Z,87.06
2018-03-26T01:03:48.353Z,86.97
2018-03-26T01:06:15.882Z,86.98
2018-03-26T01:08:43.419Z,86.60
2018-03-26T01:11:11.080Z,86.84
2018-03-26T01:13:38.622Z,86.71
2018-03-26T01:16:06.159Z,86.79
2018-03-26T01:18:33.723Z,87.11
2018-03-26T01:21:01.303Z,87.40
2018-03-26T01:23:28.841Z,87.56
2018-03-26T01:25:56.422Z,87.69
2018-03-26T01:28:23.949Z,87.62
2018-03-26T01:30:51.497Z,87.76
2018-03-26T01:33:19.361Z,87.84
2018-03-26T01:35:46.886Z,87.86
2018-03-26T01:38:14.429Z,87.95
2018-03-26T01:40:42.002Z,88.11
2018-03-26T01:43:09.551Z,88.24
2018-03-26T01:45:37.116Z,88.23
2018-03-26T01:48:04.848Z,88.18
2018-03-26T01:50:32.423Z,88.05
2018-03-26T01:52:59.979Z,88.19
2018-03-26T01:55:27.543Z,88.22
2018-03-26T01:57:55.081Z,88.17
2018-03-26T02:00:22.629Z,88.24
2018-03-26T02:02:50.223Z,88.22
2018-03-26T02:05:18.494Z,88.40
2018-03-26T02:07:46.055Z,88.73
2018-03-26T02:10:13.771Z,89.48
2018-03-26T02:12:41.322Z,89.90
2018-03-26T02:15:08.880Z,90.54
2018-03-26T02:17:36.750Z,90.83
2018-03-26T02:20:04.336Z,91.25
2018-03-26T02:22:31.869Z,91.73
2018-03-26T02:24:59.451Z,91.68
2018-03-26T02:27:26.999Z,91.42
2018-03-26T02:29:54.534Z,91.08
2018-03-26T02:32:22.117Z,91.02
2018-03-26T02:34:49.662Z,90.91
2018-03-26T02:37:17.237Z,90.99
2018-03-26T02:39:44.808Z,90.70
2018-03-26T02:42:12.358Z,90.63
2018-03-26T02:44:39.943Z,90.72
2018-03-26T02:47:07.503Z,90.63
2018-03-26T02:49:35.053Z,90.42
2018-03-26T02:52:02.593Z,90.28
2018-03-26T02:54:30.180Z,90.02
2018-03-26T02:56:57.729Z,89.72
2018-03-26T02:59:25.274Z,89.26
2018-03-26T03:01:52.953Z,88.77
2018-03-26T03:04:20.495Z,87.90
2018-03-26T03:06:48.038Z,87.77
2018-03-26T03:09:15.625Z,88.05
2018-03-26T03:11:43.161Z,88.17
2018-03-26T03:14:10.696Z,88.09
2018-03-26T03:16:38.406Z,87.93
2018-03-26T03:19:05.945Z,87.55
2018-03-26T03:21:33.490Z,87.46
2018-03-26T03:24:01.065Z,86.94
2018-03-26T03:26:28.609Z,86.97
2018-03-26T03:28:56.138Z,87.02
2018-03-26T03:31:23.712Z,86.81
2018-03-26T03:33:51.283Z,86.67
2018-03-26T03:36:18.814Z,86.99
2018-03-26T03:38:46.366Z,87.05
2018-03-26T03:41:13.902Z,87.18
2018-03-26T03:43:41.451Z,87.24
2018-03-26T03:46:08.974Z,87.62
2018-03-26T03:48:36.543Z,88.55
2018-03-26T03:51:04.428Z,88.60
2018-03-26T03:53:31.959Z,88.98
2018-03-26T03:55:59.495Z,89.43
2018-03-26T03:58:27.078Z,89.67
2018-03-26T04:00:54.617Z,89.77
2018-03-26T04:03:22.196Z,89.95
2018-03-26T04:05:49.910Z,90.02
2018-03-26T04:08:17.481Z,90.00
2018-03-26T04:10:45.009Z,89.72
2018-03-26T04:13:12.826Z,89.36
2018-03-26T04:15:40.375Z,89.00
2018-03-26T04:18:08.076Z,88.92
2018-03-26T04:20:35.669Z,88.89
2018-03-26T04:23:03.210Z,88.96
2018-03-26T04:25:30.761Z,89.13
2018-03-26T04:27:58.413Z,89.24
2018-03-26T04:30:25.947Z,89.14
2018-03-26T04:32:53.486Z,89.12
2018-03-26T04:35:21.105Z,89.14
2018-03-26T04:37:48.606Z,89.72
2018-03-26T04:40:16.150Z,89.90
2018-03-26T04:42:43.817Z,89.87
2018-03-26T04:45:11.376Z,89.73
2018-03-26T04:47:38.917Z,89.69
2018-03-26T04:50:06.490Z,89.88
2018-03-26T04:52:34.031Z,89.78
2018-03-26T04:55:01.590Z,89.66
2018-03-26T04:57:29.166Z,89.73
2018-03-26T04:59:56.713Z,89.51
2018-03-26T05:02:24.269Z,89.01
2018-03-26T05:04:51.856Z,88.72
2018-03-26T05:07:19.411Z,88.76
2018-03-26T05:09:46.951Z,88.65
2018-03-26T05:12:14.609Z,88.44
2018-03-26T05:14:42.146Z,88.41
2018-03-26T05:17:09.679Z,88.30
2018-03-26T05:19:37.285Z,88.19
2018-03-26T05:22:04.823Z,87.99
2018-03-26T05:24:32.367Z,88.00
2018-03-26T05:27:00.250Z,88.33
2018-03-26T05:29:27.794Z,88.18
2018-03-26T05:31:56.233Z,88.61
2018-03-26T05:34:23.946Z,88.51
2018-03-26T05:36:51.512Z,88.26
2018-03-26T05:39:19.054Z,87.86
2018-03-26T05:41:46.730Z,87.61
2018-03-26T05:44:14.285Z,86.63
2018-03-26T05:46:41.830Z,86.13
2018-03-26T05:49:09.578Z,85.49
2018-03-26T05:51:37.119Z,84.83
2018-03-26T05:54:04.660Z,83.70
2018-03-26T05:56:32.255Z,81.73
2018-03-26T05:58:59.811Z,81.17
2018-03-26T06:01:27.368Z,79.31
2018-03-26T06:03:54.975Z,78.64
2018-03-26T06:06:22.533Z,77.03
2018-03-26T06:08:50.087Z,75.36
2018-03-26T06:11:17.705Z,73.19
2018-03-26T06:13:45.241Z,71.00
2018-03-26T06:16:12.777Z,70.11
2018-03-26T06:18:40.361Z,69.71
2018-03-26T06:21:07.932Z,69.49
2018-03-26T06:23:35.491Z,71.29
2018-03-26T06:26:03.091Z,71.59
2018-03-26T06:28:30.655Z,71.42
2018-03-26T06:30:58.221Z,71.37
2018-03-26T06:33:25.807Z,71.97
2018-03-26T06:35:53.350Z,71.95
2018-03-26T06:38:23.431Z,72.84
2018-03-26T06:40:51.182Z,73.84
2018-03-26T06:43:18.749Z,73.91
2018-03-26T06:45:46.287Z,74.51
2018-03-26T06:48:13.883Z,74.33
2018-03-26T06:50:41.423Z,71.65
2018-03-26T06:53:08.960Z,71.68
2018-03-26T06:55:36.522Z,70.36
2018-03-26T06:58:04.079Z,70.36
2018-03-26T07:00:31.616Z,68.41
2018-03-26T07:02:59.321Z,67.01
2018-03-26T07:05:26.861Z,65.87
2018-03-26T07:07:54.412Z,66.91
2018-03-26T07:10:21.996Z,68.71
2018-03-26T07:12:49.530Z,68.51
2018-03-26T07:15:17.077Z,68.59
2018-03-26T07:17:44.649Z,68.51
2018-03-26T07:20:12.209Z,69.38
2018-03-26T07:22:39.781Z,69.28
2018-03-26T07:25:07.672Z,70.05
2018-03-26T07:27:35.248Z,70.22
2018-03-26T07:30:02.808Z,70.54
2018-03-26T07:32:30.421Z,69.66
2018-03-26T07:34:57.963Z,68.33
2018-03-26T07:37:25.518Z,68.82
2018-03-26T07:39:53.083Z,68.36
2018-03-26T07:42:20.637Z,68.44
2018-03-26T07:44:48.177Z,68.79
2018-03-26T07:47:15.920Z,68.20
2018-03-26T07:49:43.463Z,68.77
2018-03-26T07:52:11.000Z,68.08
2018-03-26T07:54:38.596Z,67.86
2018-03-26T07:57:06.125Z,67.19
2018-03-26T07:59:33.678Z,68.65
2018-03-26T08:02:01.254Z,68.97
2018-03-26T08:04:28.799Z,69.57
2018-03-26T08:06:56.354Z,70.48
2018-03-26T08:09:23.929Z,71.26
2018-03-26T08:11:51.479Z,71.11
2018-03-26T08:14:19.024Z,70.17
2018-03-26T08:16:46.622Z,68.62
2018-03-26T08:19:14.170Z,68.53
2018-03-26T08:21:41.710Z,67.98
2018-03-26T08:24:09.282Z,66.93
2018-03-26T08:26:36.839Z,66.08
2018-03-26T08:29:04.381Z,66.45
2018-03-26T08:31:32.106Z,66.23
2018-03-26T08:33:59.648Z,66.78
2018-03-26T08:36:27.243Z,63.49
2018-03-26T08:38:54.782Z,62.99
2018-03-26T08:41:22.338Z,63.89
2018-03-26T08:43:50.023Z,62.24
2018-03-26T08:46:17.573Z,61.82
2018-03-26T08:48:45.117Z,62.13
2018-03-26T08:51:12.713Z,61.53
2018-03-26T08:53:40.318Z,62.16
2018-03-26T08:56:07.849Z,60.92
2018-03-26T08:58:35.713Z,61.01
2018-03-26T09:01:03.254Z,63.02
2018-03-26T09:03:30.793Z,62.26
2018-03-26T09:05:58.473Z,61.01
2018-03-26T09:08:26.022Z,60.98
2018-03-26T09:10:53.567Z,61.68
2018-03-26T09:13:21.307Z,62.12
2018-03-26T09:15:48.850Z,60.94
2018-03-26T09:18:16.387Z,58.44
2018-03-26T09:20:44.182Z,60.45
2018-03-26T09:23:11.757Z,61.82
2018-03-26T09:25:39.319Z,62.69
2018-03-26T09:28:07.002Z,62.01
2018-03-26T09:30:34.549Z,61.42
2018-03-26T09:33:02.092Z,62.03
2018-03-26T09:35:29.675Z,61.70
2018-03-26T09:37:57.231Z,62.08
2018-03-26T09:40:24.806Z,64.06
2018-03-26T09:42:52.404Z,63.42
2018-03-26T09:45:19.958Z,63.59
2018-03-26T09:47:47.541Z,64.30
2018-03-26T09:50:15.231Z,64.20
2018-03-26T09:52:42.791Z,65.04
2018-03-26T09:55:10.359Z,64.72
2018-03-26T09:57:38.089Z,65.93
2018-03-26T10:00:05.670Z,65.54
2018-03-26T10:02:33.211Z,65.33
2018-03-26T10:05:00.781Z,64.86
2018-03-26T10:07:28.321Z,65.24
2018-03-26T10:09:55.872Z,64.73
2018-03-26T10:12:23.454Z,65.41
2018-03-26T10:14:50.993Z,65.15
2018-03-26T10:17:18.552Z,65.78
2018-03-26T10:19:46.176Z,66.62
2018-03-26T10:22:13.703Z,66.67
2018-03-26T10:24:41.238Z,65.69
2018-03-26T10:27:08.805Z,65.44
2018-03-26T10:29:36.351Z,66.58
2018-03-26T10:32:03.898Z,66.66
2018-03-26T10:34:31.484Z,66.59
2018-03-26T10:36:59.026Z,66.25
2018-03-26T10:39:26.585Z,66.15
2018-03-26T10:41:54.305Z,66.40
2018-03-26T10:44:21.857Z,66.37
2018-03-26T10:46:49.415Z,67.04
2018-03-26T10:49:17.102Z,67.19
2018-03-26T10:51:44.643Z,66.84
2018-03-26T10:54:12.196Z,68.00
2018-03-26T10:56:39.775Z,67.69
2018-03-26T10:59:07.317Z,66.98
2018-03-26T11:01:34.841Z,67.82
2018-03-26T11:04:02.426Z,69.65
2018-03-26T11:06:29.969Z,69.18
2018-03-26T11:08:57.517Z,69.05
2018-03-26T11:11:25.095Z,69.62
2018-03-26T11:13:52.643Z,69.46
2018-03-26T11:16:20.201Z,68.80
2018-03-26T11:18:47.793Z,69.47
2018-03-26T11:21:15.355Z,68.22
2018-03-26T11:23:42.903Z,67.96
2018-03-26T11:26:10.768Z,68.55
2018-03-26T11:28:38.302Z,65.72
2018-03-26T11:31:05.844Z,65.51
2018-03-26T11:33:33.432Z,65.23
2018-03-26T11:36:00.976Z,62.77
2018-03-26T11:38:28.526Z,63.58
2018-03-26T11:40:56.395Z,64.35
2018-03-26T11:43:23.943Z,64.53
2018-03-26T11:45:51.481Z,64.55
2018-03-26T11:48:19.057Z,65.10
2018-03-26T11:50:46.598Z,63.37
2018-03-26T11:53:14.154Z,63.84
2018-03-26T11:55:42.003Z,64.39
2018-03-26T11:58:09.556Z,65.04
2018-03-26T12:00:37.079Z,66.21
2018-03-26T12:03:05.234Z,66.05
2018-03-26T12:05:32.804Z,66.41
2018-03-26T12:08:00.350Z,68.56
2018-03-26T12:10:28.097Z,67.13
2018-03-26T12:12:55.646Z,68.25
2018-03-26T12:15:23.183Z,67.22
2018-03-26T12:17:50.786Z,65.84
2018-03-26T12:20:30.070Z,65.56
2018-03-26T12:22:57.799Z,65.50
2018-03-26T12:25:25.381Z,65.66
2018-03-26T12:28:04.569Z,64.93
2018-03-26T12:30:32.146Z,65.90
2018-03-26T12:32:59.687Z,65.70
2018-03-26T12:35:39.517Z,66.66
2018-03-26T12:38:07.065Z,66.85
2018-03-26T12:40:46.178Z,68.37
2018-03-26T12:43:13.722Z,68.70
2018-03-26T12:45:52.980Z,69.19
2018-03-26T12:48:20.526Z,69.08
2018-03-26T12:50:59.748Z,69.92
2018-03-26T12:53:27.299Z,71.32
2018-03-26T12:55:54.839Z,71.07
2018-03-26T12:58:34.263Z,71.14
2018-03-26T13:01:13.550Z,70.60
2018-03-26T13:03:41.134Z,70.20
2018-03-26T13:06:08.692Z,70.48
2018-03-26T13:08:36.253Z,70.57
2018-03-26T13:11:04.145Z,71.44
2018-03-26T13:13:31.722Z,70.90
2018-03-26T13:15:59.270Z,70.60
2018-03-26T13:18:26.990Z,70.71
2018-03-26T13:20:54.543Z,72.17
2018-03-26T13:23:22.132Z,72.22
2018-03-26T13:25:49.758Z,72.93
2018-03-26T13:28:17.314Z,72.64
2018-03-26T13:30:44.903Z,71.06
2018-03-26T13:33:12.499Z,71.06
2018-03-26T13:35:40.043Z,71.81
2018-03-26T13:38:07.622Z,72.46
2018-03-26T13:40:35.248Z,72.23
2018-03-26T13:43:02.817Z,72.33
2018-03-26T13:45:30.375Z,72.06
2018-03-26T13:47:57.969Z,71.88
2018-03-26T13:50:25.535Z,72.70
2018-03-26T13:52:53.095Z,73.06
2018-03-26T13:55:20.691Z,72.25
2018-03-26T13:57:48.887Z,73.40
2018-03-26T14:00:16.466Z,71.70
2018-03-26T14:02:44.056Z,71.71
2018-03-26T14:05:11.600Z,72.46
2018-03-26T14:07:39.156Z,71.95
2018-03-26T14:10:18.578Z,72.93
2018-03-26T14:12:57.796Z,71.43
2018-03-26T14:15:37.024Z,72.14
2018-03-26T14:18:06.446Z,71.25
2018-03-26T14:20:34.014Z,71.11
2018-03-26T14:23:01.626Z,70.78
2018-03-26T14:25:29.191Z,71.13
2018-03-26T14:27:56.755Z,71.13
2018-03-26T14:30:24.354Z,71.26
2018-03-26T14:32:51.902Z,71.07
2018-03-26T14:38:25.763Z,70.36
2018-03-26T14:40:53.491Z,69.38
2018-03-26T14:43:21.066Z,69.37
2018-03-26T14:45:48.618Z,70.36
2018-03-26T14:48:16.323Z,69.62
2018-03-26T14:50:43.878Z,69.56
2018-03-26T14:53:11.423Z,69.89
2018-03-26T14:55:39.015Z,69.27
2018-03-26T14:58:06.585Z,69.56
2018-03-26T15:00:34.144Z,68.96
2018-03-26T15:03:01.753Z,68.87
2018-03-26T15:05:29.312Z,70.12
2018-03-26T15:07:56.876Z,69.81
2018-03-26T15:10:24.462Z,69.37
2018-03-26T15:12:52.208Z,69.94
2018-03-26T15:15:19.770Z,70.00
2018-03-26T15:17:47.382Z,70.30
2018-03-26T15:20:14.984Z,70.98
2018-03-26T15:22:42.570Z,71.58
2018-03-26T15:25:10.204Z,73.52
2018-03-26T15:27:38.514Z,73.53
2018-03-26T15:30:06.088Z,73.91
2018-03-26T15:32:33.983Z,75.36
2018-03-26T15:35:01.537Z,77.22
2018-03-26T15:37:29.125Z,77.36
2018-03-26T15:39:56.731Z,76.86
2018-03-26T15:42:24.348Z,77.99
2018-03-26T15:44:52.016Z,78.50
2018-03-26T15:47:19.563Z,79.73
2018-03-26T15:49:47.122Z,80.41
2018-03-26T15:52:14.890Z,80.49
2018-03-26T15:54:42.465Z,80.93
2018-03-26T15:57:10.050Z,81.43
2018-03-26T15:59:37.656Z,82.31
2018-03-26T16:02:04.688Z,82.67
2018-03-26T16:04:32.315Z,81.89
2018-03-26T16:07:00.007Z,82.12
2018-03-26T16:09:27.566Z,82.78
2018-03-26T16:11:55.242Z,82.90
2018-03-26T16:14:22.978Z,83.38
2018-03-26T16:16:50.538Z,83.72
2018-03-26T16:19:18.090Z,83.96
2018-03-26T16:21:45.698Z,83.95
2018-03-26T16:24:13.259Z,84.14
2018-03-26T16:26:40.816Z,83.96
2018-03-26T16:29:08.500Z,83.70
2018-03-26T16:31:36.055Z,83.19
2018-03-26T16:34:03.621Z,83.58
2018-03-26T16:36:31.534Z,83.60
2018-03-26T16:38:59.086Z,84.19
2018-03-26T16:41:38.464Z,84.22
2018-03-26T16:44:06.066Z,84.36
2018-03-26T16:46:33.632Z,84.79
2018-03-26T16:49:01.218Z,85.16
2018-03-26T16:51:28.797Z,85.76
2018-03-26T16:53:56.347Z,85.79
2018-03-26T16:56:24.252Z,86.06
2018-03-26T16:58:51.842Z,85.90
2018-03-26T17:01:19.420Z,85.89
2018-03-26T17:03:47.221Z,85.93
2018-03-26T17:06:14.765Z,85.86
2018-03-26T17:08:42.314Z,85.46
2018-03-26T17:11:09.907Z,86.04
2018-03-26T17:13:37.450Z,86.22
2018-03-26T17:16:05.057Z,86.19
2018-03-26T17:18:32.652Z,85.81
2018-03-26T17:21:00.274Z,85.44
2018-03-26T17:23:27.852Z,85.25
2018-03-26T17:25:55.477Z,85.41
2018-03-26T17:28:23.057Z,85.42
2018-03-26T17:30:50.644Z,85.37
2018-03-26T17:33:18.288Z,85.93
2018-03-26T17:35:45.853Z,85.97
2018-03-26T17:38:13.415Z,85.95
2018-03-26T17:40:41.033Z,86.08
2018-03-26T17:43:08.583Z,86.43
2018-03-26T17:45:36.141Z,86.36
2018-03-26T17:48:03.861Z,86.70
2018-03-26T17:50:31.422Z,86.81
2018-03-26T17:52:58.969Z,86.67
2018-03-26T17:55:26.551Z,86.59
2018-03-26T17:57:54.115Z,86.65
2018-03-26T18:00:21.671Z,86.65
2018-03-26T18:02:49.385Z,86.57
2018-03-26T18:05:16.950Z,86.74
2018-03-26T18:07:44.535Z,86.72
2018-03-26T18:10:12.290Z,86.50
2018-03-26T18:12:39.828Z,86.63
2018-03-26T18:15:07.403Z,86.70
2018-03-26T18:17:35.286Z,86.72
2018-03-26T18:20:03.166Z,86.89
2018-03-26T18:22:30.790Z,86.67
2018-03-26T18:24:58.602Z,86.57
2018-03-26T18:27:26.153Z,86.46
2018-03-26T18:29:53.715Z,86.71
2018-03-26T18:32:21.307Z,86.68
2018-03-26T18:34:48.866Z,86.77
2018-03-26T18:37:16.409Z,86.69
2018-03-26T18:39:43.965Z,86.74
2018-03-26T18:42:11.542Z,87.03
2018-03-26T18:44:39.287Z,87.22
2018-03-26T18:47:06.848Z,87.11
2018-03-26T18:49:34.437Z,87.26
2018-03-26T18:52:02.123Z,87.19
2018-03-26T18:54:29.690Z,86.94
2018-03-26T18:56:58.205Z,86.73
2018-03-26T18:59:25.914Z,86.91
2018-03-26T19:01:53.470Z,86.94
2018-03-26T19:04:21.056Z,87.02
2018-03-26T19:06:48.822Z,87.21
2018-03-26T19:09:16.386Z,87.37
2018-03-26T19:11:43.947Z,87.47
2018-03-26T19:14:11.549Z,87.45
2018-03-26T19:16:39.143Z,87.37
2018-03-26T19:19:06.701Z,87.46
2018-03-26T19:21:34.606Z,87.37
2018-03-26T19:24:02.164Z,87.22
2018-03-26T19:26:29.723Z,87.38
2018-03-26T19:28:57.354Z,87.61
2018-03-26T19:31:25.637Z,87.56
2018-03-26T19:33:53.181Z,87.72
2018-03-26T19:36:20.926Z,87.78
2018-03-26T19:38:48.497Z,87.84
2018-03-26T19:41:16.068Z,87.87
2018-03-26T19:43:43.670Z,87.94
2018-03-26T19:46:11.247Z,87.93
2018-03-26T19:48:38.825Z,87.96
2018-03-26T19:51:06.422Z,87.94
2018-03-26T19:53:33.974Z,87.93
2018-03-26T19:56:01.541Z,87.98
2018-03-26T19:58:29.608Z,87.91
2018-03-26T20:00:57.166Z,87.98
2018-03-26T20:03:24.724Z,88.01
2018-03-26T20:05:52.453Z,88.08
2018-03-26T20:08:20.010Z,88.15
2018-03-26T20:10:47.563Z,88.15
2018-03-26T20:13:15.241Z,88.28
2018-03-26T20:15:42.799Z,88.35
2018-03-26T20:18:10.356Z,88.37
2018-03-26T20:20:37.961Z,88.38
2018-03-26T20:23:05.541Z,88.40
2018-03-26T20:25:33.088Z,88.30
2018-03-26T20:28:00.690Z,88.22
2018-03-26T20:30:28.235Z,88.16
2018-03-26T20:32:55.798Z,88.22
2018-03-26T20:35:23.687Z,88.23
2018-03-26T20:37:51.241Z,88.35
2018-03-26T20:40:18.817Z,88.36
2018-03-26T20:42:46.554Z,88.33
2018-03-26T20:45:14.106Z,88.33
2018-03-26T20:47:41.658Z,88.45
2018-03-26T20:50:09.266Z,88.56
2018-03-26T20:52:36.809Z,88.59
2018-03-26T20:55:04.410Z,88.69
2018-03-26T20:57:32.011Z,88.73
2018-03-26T20:59:59.582Z,88.86
2018-03-26T21:02:27.146Z,88.81
2018-03-26T21:04:54.871Z,88.87
2018-03-26T21:07:22.428Z,88.93
2018-03-26T21:09:49.987Z,88.89
2018-03-26T21:12:17.585Z,88.94
2018-03-26T21:14:45.140Z,88.95
2018-03-26T21:17:12.743Z,88.89
2018-03-26T21:19:40.610Z,88.80
2018-03-26T21:22:08.180Z,88.78
2018-03-26T21:24:35.736Z,88.79
2018-03-26T21:27:03.625Z,88.73
2018-03-26T21:29:31.173Z,88.73
2018-03-26T21:31:58.750Z,88.65
2018-03-26T21:34:26.487Z,88.63
2018-03-26T21:36:54.054Z,88.55
2018-03-26T21:39:21.609Z,88.62
2018-03-26T21:41:49.222Z,88.82
2018-03-26T21:44:16.798Z,88.96
2018-03-26T21:46:44.354Z,89.02
2018-03-26T21:49:12.070Z,89.05
2018-03-26T21:51:39.617Z,89.23
2018-03-26T21:54:07.200Z,89.40
2018-03-26T21:56:34.900Z,89.38
2018-03-26T21:59:02.466Z,89.44
2018-03-26T22:01:30.029Z,89.40
2018-03-26T22:03:57.897Z,89.42
2018-03-26T22:06:25.455Z,89.57
2018-03-26T22:08:53.013Z,89.77
2018-03-26T22:11:20.585Z,89.68
2018-03-26T22:13:48.147Z,89.67
2018-03-26T22:16:15.727Z,89.68
2018-03-26T22:18:43.467Z,89.64
2018-03-26T22:21:11.018Z,89.56
2018-03-26T22:23:38.600Z,89.46
2018-03-26T22:26:06.205Z,89.34
2018-03-26T22:28:33.761Z,89.34
2018-03-26T22:31:01.328Z,89.26
2018-03-26T22:33:28.918Z,89.24
2018-03-26T22:35:56.478Z,89.58
2018-03-26T22:38:24.037Z,89.70
2018-03-26T22:40:51.616Z,89.77
2018-03-26T22:43:19.170Z,89.79
2018-03-26T22:45:46.899Z,89.83
2018-03-26T22:48:14.471Z,89.88
2018-03-26T22:50:42.070Z,89.93
2018-03-26T22:53:09.642Z,90.05
2018-03-26T22:55:37.192Z,90.06
2018-03-26T22:58:04.759Z,90.12
2018-03-26T23:00:32.353Z,90.14
2018-03-26T23:02:59.913Z,90.19
2018-03-26T23:05:27.470Z,90.29
2018-03-26T23:07:55.150Z,90.41
2018-03-26T23:10:22.710Z,90.43
2018-03-26T23:12:50.251Z,90.42
2018-03-26T23:15:17.846Z,90.43
2018-03-26T23:17:45.394Z,90.37
2018-03-26T23:20:12.950Z,90.34
2018-03-26T23:22:48.374Z,90.21
2018-03-26T23:25:15.926Z,90.20
2018-03-26T23:27:43.485Z,90.31
2018-03-26T23:30:11.221Z,90.25
2018-03-26T23:32:38.772Z,90.27
2018-03-26T23:35:06.308Z,90.20
2018-03-26T23:37:34.182Z,90.21
2018-03-26T23:40:01.730Z,90.40
2018-03-26T23:42:29.274Z,90.44
2018-03-26T23:44:56.968Z,90.22
2018-03-26T23:47:24.522Z,89.99
2018-03-26T23:49:52.078Z,89.84
2018-03-26T23:52:19.889Z,89.92
2018-03-26T23:54:47.440Z,89.92
2018-03-26T23:57:14.986Z,89.74
2018-03-26T23:59:42.867Z,89.62
